sensor_id;sensor_type;location;lat;lon;timestamp;pressure;altitude;pressure_sealevel;temperature;humidity
32873;BME280;19224;52.462;16.898;2022-10-31T00:00:59;100571.33;;;13.18;100.00
32873;BME280;19224;52.462;16.898;2022-10-31T00:03:31;100571.17;;;13.21;100.00
32873;BME280;19224;52.462;16.898;2022-10-31T00:06:01;100571.17;;;13.21;100.00
32873;BME280;19224;52.462;16.898;2022-10-31T00:08:34;100573.97;;;13.20;100.00
32873;BME280;19224;52.462;16.898;2022-10-31T00:11:10;100573.41;;;13.22;100.00
32873;BME280;19224;52.462;16.898;2022-10-31T00:13:48;100579.55;;;13.25;100.00
32873;BME280;19224;52.462;16.898;2022-10-31T00:16:39;100579.37;;;13.28;100.00
32873;BME280;19224;52.462;16.898;2022-10-31T00:19:12;100572.45;;;13.31;100.00
32873;BME280;19224;52.462;16.898;2022-10-31T00:21:43;100572.71;;;13.35;100.00
32873;BME280;19224;52.462;16.898;2022-10-31T00:24:13;100577.96;;;13.30;100.00
32873;BME280;19224;52.462;16.898;2022-10-31T00:26:45;100576.05;;;13.23;100.00
32873;BME280;19224;52.462;16.898;2022-10-31T00:29:17;100579.71;;;13.22;100.00
32873;BME280;19224;52.462;16.898;2022-10-31T00:31:54;100580.11;;;13.23;100.00
32873;BME280;19224;52.462;16.898;2022-10-31T00:34:28;100576.11;;;13.30;100.00
32873;BME280;19224;52.462;16.898;2022-10-31T00:37:00;100576.44;;;13.33;100.00
32873;BME280;19224;52.462;16.898;2022-10-31T00:39:32;100573.73;;;13.33;100.00
32873;BME280;19224;52.462;16.898;2022-10-31T00:42:07;100575.42;;;13.35;100.00
32873;BME280;19224;52.462;16.898;2022-10-31T00:44:37;100575.81;;;13.36;100.00
32873;BME280;19224;52.462;16.898;2022-10-31T00:47:07;100581.69;;;13.36;100.00
32873;BME280;19224;52.462;16.898;2022-10-31T00:49:41;100582.58;;;13.36;100.00
32873;BME280;19224;52.462;16.898;2022-10-31T00:52:18;100579.48;;;13.35;100.00
32873;BME280;19224;52.462;16.898;2022-10-31T00:54:48;100557.91;;;13.17;100.00
32873;BME280;19224;52.462;16.898;2022-10-31T00:57:19;100576.61;;;13.30;100.00
32873;BME280;19224;52.462;16.898;2022-10-31T00:59:53;100578.09;;;13.27;100.00
32873;BME280;19224;52.462;16.898;2022-10-31T01:02:24;100579.22;;;13.23;100.00
32873;BME280;19224;52.462;16.898;2022-10-31T01:04:54;100575.78;;;13.19;100.00
32873;BME280;19224;52.462;16.898;2022-10-31T01:07:24;100580.47;;;13.16;100.00
32873;BME280;19224;52.462;16.898;2022-10-31T01:09:55;100579.67;;;13.05;100.00
32873;BME280;19224;52.462;16.898;2022-10-31T01:12:26;100582.77;;;12.98;100.00
32873;BME280;19224;52.462;16.898;2022-10-31T01:14:56;100584.58;;;12.97;100.00
32873;BME280;19224;52.462;16.898;2022-10-31T01:17:29;100589.87;;;12.90;100.00
32873;BME280;19224;52.462;16.898;2022-10-31T01:19:59;100597.16;;;12.88;100.00
32873;BME280;19224;52.462;16.898;2022-10-31T01:22:32;100595.97;;;12.85;100.00
32873;BME280;19224;52.462;16.898;2022-10-31T01:25:05;100603.05;;;12.79;100.00
32873;BME280;19224;52.462;16.898;2022-10-31T01:27:36;100596.84;;;12.77;100.00
32873;BME280;19224;52.462;16.898;2022-10-31T01:30:07;100598.88;;;12.72;100.00
32873;BME280;19224;52.462;16.898;2022-10-31T01:32:37;100592.09;;;12.64;100.00
32873;BME280;19224;52.462;16.898;2022-10-31T01:35:07;100595.81;;;12.61;100.00
32873;BME280;19224;52.462;16.898;2022-10-31T01:37:41;100594.69;;;12.57;100.00
32873;BME280;19224;52.462;16.898;2022-10-31T01:40:12;100598.22;;;12.49;100.00
32873;BME280;19224;52.462;16.898;2022-10-31T01:42:42;100598.12;;;12.42;100.00
32873;BME280;19224;52.462;16.898;2022-10-31T01:45:14;100597.15;;;12.34;100.00
32873;BME280;19224;52.462;16.898;2022-10-31T01:47:46;100597.08;;;12.26;100.00
32873;BME280;19224;52.462;16.898;2022-10-31T01:50:34;100587.72;;;12.24;100.00
32873;BME280;19224;52.462;16.898;2022-10-31T01:53:06;100589.47;;;12.25;100.00
32873;BME280;19224;52.462;16.898;2022-10-31T01:55:41;100598.58;;;12.23;100.00
32873;BME280;19224;52.462;16.898;2022-10-31T01:58:21;100599.89;;;12.14;100.00
32873;BME280;19224;52.462;16.898;2022-10-31T02:00:55;100590.45;;;12.14;100.00
32873;BME280;19224;52.462;16.898;2022-10-31T02:03:29;100592.59;;;12.16;100.00
32873;BME280;19224;52.462;16.898;2022-10-31T02:06:37;100588.88;;;12.19;100.00
32873;BME280;19224;52.462;16.898;2022-10-31T02:09:06;100588.79;;;12.20;100.00
32873;BME280;19224;52.462;16.898;2022-10-31T02:11:38;100584.49;;;12.16;100.00
32873;BME280;19224;52.462;16.898;2022-10-31T02:14:08;100592.44;;;12.19;100.00
32873;BME280;19224;52.462;16.898;2022-10-31T02:16:39;100595.45;;;12.13;100.00
32873;BME280;19224;52.462;16.898;2022-10-31T02:19:27;100594.77;;;12.08;100.00
32873;BME280;19224;52.462;16.898;2022-10-31T02:21:55;100602.95;;;12.07;100.00
32873;BME280;19224;52.462;16.898;2022-10-31T02:24:54;100597.61;;;12.05;100.00
32873;BME280;19224;52.462;16.898;2022-10-31T02:30:27;100597.23;;;11.94;100.00
32873;BME280;19224;52.462;16.898;2022-10-31T02:33:03;100597.77;;;11.93;100.00
32873;BME280;19224;52.462;16.898;2022-10-31T02:35:47;100602.48;;;11.88;100.00
32873;BME280;19224;52.462;16.898;2022-10-31T02:38:26;100604.28;;;11.79;100.00
32873;BME280;19224;52.462;16.898;2022-10-31T02:41:12;100598.73;;;11.72;100.00
32873;BME280;19224;52.462;16.898;2022-10-31T02:46:28;100602.19;;;11.65;100.00
32873;BME280;19224;52.462;16.898;2022-10-31T02:49:11;100597.33;;;11.63;100.00
32873;BME280;19224;52.462;16.898;2022-10-31T02:51:48;100604.39;;;11.66;100.00
32873;BME280;19224;52.462;16.898;2022-10-31T02:54:23;100601.58;;;11.59;100.00
32873;BME280;19224;52.462;16.898;2022-10-31T02:57:04;100600.85;;;11.54;100.00
32873;BME280;19224;52.462;16.898;2022-10-31T02:59:35;100604.23;;;11.49;100.00
32873;BME280;19224;52.462;16.898;2022-10-31T03:02:24;100614.12;;;11.38;100.00
32873;BME280;19224;52.462;16.898;2022-10-31T03:05:11;100614.02;;;11.41;100.00
32873;BME280;19224;52.462;16.898;2022-10-31T03:08:08;100616.91;;;11.37;100.00
32873;BME280;19224;52.462;16.898;2022-10-31T03:13:45;100613.11;;;11.31;100.00
32873;BME280;19224;52.462;16.898;2022-10-31T03:16:16;100612.70;;;11.30;100.00
32873;BME280;19224;52.462;16.898;2022-10-31T03:18:50;100612.14;;;11.22;100.00
32873;BME280;19224;52.462;16.898;2022-10-31T03:21:27;100613.09;;;11.21;100.00
32873;BME280;19224;52.462;16.898;2022-10-31T03:24:00;100622.88;;;11.23;100.00
32873;BME280;19224;52.462;16.898;2022-10-31T03:26:32;100615.28;;;11.23;100.00
32873;BME280;19224;52.462;16.898;2022-10-31T03:29:06;100619.38;;;11.21;100.00
32873;BME280;19224;52.462;16.898;2022-10-31T03:31:49;100618.97;;;11.20;100.00
32873;BME280;19224;52.462;16.898;2022-10-31T03:34:21;100615.92;;;11.18;100.00
32873;BME280;19224;52.462;16.898;2022-10-31T03:36:56;100616.70;;;11.10;100.00
32873;BME280;19224;52.462;16.898;2022-10-31T03:39:27;100612.94;;;11.04;100.00
32873;BME280;19224;52.462;16.898;2022-10-31T03:42:18;100611.72;;;11.01;100.00
32873;BME280;19224;52.462;16.898;2022-10-31T03:44:48;100607.38;;;10.97;100.00
32873;BME280;19224;52.462;16.898;2022-10-31T03:47:18;100614.52;;;10.98;100.00
32873;BME280;19224;52.462;16.898;2022-10-31T03:49:52;100612.91;;;10.94;100.00
32873;BME280;19224;52.462;16.898;2022-10-31T03:53:03;100612.91;;;10.94;100.00
32873;BME280;19224;52.462;16.898;2022-10-31T03:55:39;100608.83;;;10.84;100.00
32873;BME280;19224;52.462;16.898;2022-10-31T04:00:45;100615.61;;;10.82;100.00
32873;BME280;19224;52.462;16.898;2022-10-31T04:03:26;100612.73;;;10.87;100.00
32873;BME280;19224;52.462;16.898;2022-10-31T04:06:00;100613.27;;;10.85;100.00
32873;BME280;19224;52.462;16.898;2022-10-31T04:08:35;100616.64;;;10.80;100.00
32873;BME280;19224;52.462;16.898;2022-10-31T04:11:09;100617.98;;;10.80;100.00
32873;BME280;19224;52.462;16.898;2022-10-31T04:13:49;100621.09;;;10.81;100.00
32873;BME280;19224;52.462;16.898;2022-10-31T04:16:25;100616.16;;;10.80;100.00
32873;BME280;19224;52.462;16.898;2022-10-31T04:18:56;100617.58;;;10.79;100.00
32873;BME280;19224;52.462;16.898;2022-10-31T04:21:29;100628.45;;;10.76;100.00
32873;BME280;19224;52.462;16.898;2022-10-31T04:24:00;100621.45;;;10.72;100.00
32873;BME280;19224;52.462;16.898;2022-10-31T04:26:30;100641.30;;;10.69;100.00
32873;BME280;19224;52.462;16.898;2022-10-31T04:29:01;100628.59;;;10.73;100.00
32873;BME280;19224;52.462;16.898;2022-10-31T04:31:33;100631.16;;;10.76;100.00
32873;BME280;19224;52.462;16.898;2022-10-31T04:34:03;100635.20;;;10.76;100.00
32873;BME280;19224;52.462;16.898;2022-10-31T04:36:37;100632.54;;;10.64;100.00
32873;BME280;19224;52.462;16.898;2022-10-31T04:39:10;100632.54;;;10.64;100.00
32873;BME280;19224;52.462;16.898;2022-10-31T04:41:45;100632.18;;;10.62;100.00
32873;BME280;19224;52.462;16.898;2022-10-31T04:44:17;100629.48;;;10.62;100.00
32873;BME280;19224;52.462;16.898;2022-10-31T04:46:47;100627.78;;;10.59;100.00
32873;BME280;19224;52.462;16.898;2022-10-31T04:49:19;100632.31;;;10.59;100.00
32873;BME280;19224;52.462;16.898;2022-10-31T04:51:49;100630.25;;;10.54;100.00
32873;BME280;19224;52.462;16.898;2022-10-31T04:54:19;100635.19;;;10.54;100.00
32873;BME280;19224;52.462;16.898;2022-10-31T04:56:49;100630.87;;;10.50;100.00
32873;BME280;19224;52.462;16.898;2022-10-31T04:59:27;100633.07;;;10.51;100.00
32873;BME280;19224;52.462;16.898;2022-10-31T05:01:53;100632.27;;;10.49;100.00
32873;BME280;19224;52.462;16.898;2022-10-31T05:04:23;100630.78;;;10.52;100.00
32873;BME280;19224;52.462;16.898;2022-10-31T05:06:53;100628.31;;;10.57;100.00
32873;BME280;19224;52.462;16.898;2022-10-31T05:09:25;100633.13;;;10.61;100.00
32873;BME280;19224;52.462;16.898;2022-10-31T05:11:58;100632.36;;;10.57;100.00
32873;BME280;19224;52.462;16.898;2022-10-31T05:14:28;100638.33;;;10.54;100.00
32873;BME280;19224;52.462;16.898;2022-10-31T05:16:58;100635.23;;;10.53;100.00
32873;BME280;19224;52.462;16.898;2022-10-31T05:19:29;100637.30;;;10.58;100.00
32873;BME280;19224;52.462;16.898;2022-10-31T05:22:00;100643.89;;;10.61;100.00
32873;BME280;19224;52.462;16.898;2022-10-31T05:24:30;100640.75;;;10.61;100.00
32873;BME280;19224;52.462;16.898;2022-10-31T05:27:02;100645.65;;;10.62;100.00
32873;BME280;19224;52.462;16.898;2022-10-31T05:29:36;100648.88;;;10.60;100.00
32873;BME280;19224;52.462;16.898;2022-10-31T05:32:07;100645.24;;;10.61;100.00
32873;BME280;19224;52.462;16.898;2022-10-31T05:34:41;100646.19;;;10.60;100.00
32873;BME280;19224;52.462;16.898;2022-10-31T05:37:20;100647.70;;;10.67;100.00
32873;BME280;19224;52.462;16.898;2022-10-31T05:39:50;100648.03;;;10.69;100.00
32873;BME280;19224;52.462;16.898;2022-10-31T05:42:21;100649.16;;;10.75;100.00
32873;BME280;19224;52.462;16.898;2022-10-31T05:44:53;100650.42;;;10.77;100.00
32873;BME280;19224;52.462;16.898;2022-10-31T05:47:25;100655.94;;;10.74;100.00
32873;BME280;19224;52.462;16.898;2022-10-31T05:49:55;100653.78;;;10.72;100.00
32873;BME280;19224;52.462;16.898;2022-10-31T05:52:27;100653.91;;;10.69;100.00
32873;BME280;19224;52.462;16.898;2022-10-31T05:55:23;100653.91;;;10.69;100.00
32873;BME280;19224;52.462;16.898;2022-10-31T05:57:55;100658.17;;;10.74;100.00
32873;BME280;19224;52.462;16.898;2022-10-31T06:00:27;100663.48;;;10.76;100.00
32873;BME280;19224;52.462;16.898;2022-10-31T06:03:09;100661.73;;;10.75;100.00
32873;BME280;19224;52.462;16.898;2022-10-31T06:05:39;100664.96;;;10.73;100.00
32873;BME280;19224;52.462;16.898;2022-10-31T06:08:10;100665.95;;;10.70;100.00
32873;BME280;19224;52.462;16.898;2022-10-31T06:10:45;100670.39;;;10.71;100.00
32873;BME280;19224;52.462;16.898;2022-10-31T06:13:11;100671.56;;;10.76;100.00
32873;BME280;19224;52.462;16.898;2022-10-31T06:15:44;100661.27;;;10.75;100.00
32873;BME280;19224;52.462;16.898;2022-10-31T06:18:14;100662.54;;;10.77;100.00
32873;BME280;19224;52.462;16.898;2022-10-31T06:20:44;100658.67;;;10.84;100.00
32873;BME280;19224;52.462;16.898;2022-10-31T06:23:15;100664.88;;;10.86;100.00
32873;BME280;19224;52.462;16.898;2022-10-31T06:25:50;100675.20;;;10.86;100.00
32873;BME280;19224;52.462;16.898;2022-10-31T06:28:20;100681.04;;;10.86;100.00
32873;BME280;19224;52.462;16.898;2022-10-31T06:30:50;100682.16;;;10.92;100.00
32873;BME280;19224;52.462;16.898;2022-10-31T06:33:20;100691.86;;;10.96;100.00
32873;BME280;19224;52.462;16.898;2022-10-31T06:35:50;100689.88;;;11.01;100.00
32873;BME280;19224;52.462;16.898;2022-10-31T06:38:21;100697.97;;;11.01;100.00
32873;BME280;19224;52.462;16.898;2022-10-31T06:40:54;100693.74;;;11.05;100.00
32873;BME280;19224;52.462;16.898;2022-10-31T06:43:24;100704.58;;;11.04;100.00
32873;BME280;19224;52.462;16.898;2022-10-31T06:45:54;100705.66;;;11.10;100.00
32873;BME280;19224;52.462;16.898;2022-10-31T06:48:24;100706.20;;;11.08;100.00
32873;BME280;19224;52.462;16.898;2022-10-31T06:51:01;100708.48;;;11.18;100.00
32873;BME280;19224;52.462;16.898;2022-10-31T06:53:31;100715.30;;;11.27;100.00
32873;BME280;19224;52.462;16.898;2022-10-31T06:56:01;100719.57;;;11.32;100.00
32873;BME280;19224;52.462;16.898;2022-10-31T06:58:33;100724.78;;;11.37;100.00
32873;BME280;19224;52.462;16.898;2022-10-31T07:01:03;100723.88;;;11.36;100.00
32873;BME280;19224;52.462;16.898;2022-10-31T07:03:33;100718.76;;;11.30;100.00
32873;BME280;19224;52.462;16.898;2022-10-31T07:06:03;100721.00;;;11.41;100.00
32873;BME280;19224;52.462;16.898;2022-10-31T07:08:33;100725.58;;;11.39;100.00
32873;BME280;19224;52.462;16.898;2022-10-31T07:11:05;100722.52;;;11.48;100.00
32873;BME280;19224;52.462;16.898;2022-10-31T07:13:38;100722.52;;;11.48;100.00
32873;BME280;19224;52.462;16.898;2022-10-31T07:16:09;100730.58;;;11.59;100.00
32873;BME280;19224;52.462;16.898;2022-10-31T07:18:46;100731.91;;;11.71;100.00
32873;BME280;19224;52.462;16.898;2022-10-31T07:21:21;100737.66;;;11.83;100.00
32873;BME280;19224;52.462;16.898;2022-10-31T07:23:53;100744.33;;;11.85;100.00
32873;BME280;19224;52.462;16.898;2022-10-31T07:26:23;100743.38;;;11.86;100.00
32873;BME280;19224;52.462;16.898;2022-10-31T07:28:53;100742.98;;;11.85;100.00
32873;BME280;19224;52.462;16.898;2022-10-31T07:31:23;100745.42;;;11.91;100.00
32873;BME280;19224;52.462;16.898;2022-10-31T07:33:56;100752.30;;;11.97;100.00
32873;BME280;19224;52.462;16.898;2022-10-31T07:36:26;100755.70;;;12.02;100.00
32873;BME280;19224;52.462;16.898;2022-10-31T07:38:56;100757.05;;;12.12;100.00
32873;BME280;19224;52.462;16.898;2022-10-31T07:41:29;100755.42;;;12.18;100.00
32873;BME280;19224;52.462;16.898;2022-10-31T07:43:59;100755.42;;;12.28;100.00
32873;BME280;19224;52.462;16.898;2022-10-31T07:46:29;100753.87;;;12.33;100.00
32873;BME280;19224;52.462;16.898;2022-10-31T07:49:05;100755.27;;;12.41;100.00
32873;BME280;19224;52.462;16.898;2022-10-31T07:51:37;100756.77;;;12.48;100.00
32873;BME280;19224;52.462;16.898;2022-10-31T07:54:07;100755.55;;;12.55;100.00
32873;BME280;19224;52.462;16.898;2022-10-31T07:56:37;100752.55;;;12.61;100.00
32873;BME280;19224;52.462;16.898;2022-10-31T07:59:10;100757.05;;;12.71;100.00
32873;BME280;19224;52.462;16.898;2022-10-31T08:01:42;100753.13;;;12.78;100.00
32873;BME280;19224;52.462;16.898;2022-10-31T08:04:15;100748.86;;;12.82;100.00
32873;BME280;19224;52.462;16.898;2022-10-31T08:06:51;100751.75;;;12.88;100.00
32873;BME280;19224;52.462;16.898;2022-10-31T08:09:21;100754.70;;;12.92;100.00
32873;BME280;19224;52.462;16.898;2022-10-31T08:11:53;100748.31;;;12.94;100.00
32873;BME280;19224;52.462;16.898;2022-10-31T08:14:23;100749.52;;;12.97;100.00
32873;BME280;19224;52.462;16.898;2022-10-31T08:16:55;100743.43;;;13.02;100.00
32873;BME280;19224;52.462;16.898;2022-10-31T08:19:27;100749.64;;;13.04;100.00
32873;BME280;19224;52.462;16.898;2022-10-31T08:21:58;100748.13;;;13.07;100.00
32873;BME280;19224;52.462;16.898;2022-10-31T08:24:31;100751.91;;;13.13;100.00
32873;BME280;19224;52.462;16.898;2022-10-31T08:27:02;100751.48;;;13.22;100.00
32873;BME280;19224;52.462;16.898;2022-10-31T08:29:33;100747.34;;;13.32;100.00
32873;BME280;19224;52.462;16.898;2022-10-31T08:32:04;100747.06;;;13.38;100.00
32873;BME280;19224;52.462;16.898;2022-10-31T08:34:36;100751.36;;;13.42;100.00
32873;BME280;19224;52.462;16.898;2022-10-31T08:37:07;100755.47;;;13.51;100.00
32873;BME280;19224;52.462;16.898;2022-10-31T08:39:41;100752.65;;;13.44;100.00
32873;BME280;19224;52.462;16.898;2022-10-31T08:42:11;100755.92;;;13.50;100.00
32873;BME280;19224;52.462;16.898;2022-10-31T08:44:42;100756.99;;;13.56;100.00
32873;BME280;19224;52.462;16.898;2022-10-31T08:47:12;100762.87;;;13.64;100.00
32873;BME280;19224;52.462;16.898;2022-10-31T08:49:45;100763.94;;;13.70;100.00
32873;BME280;19224;52.462;16.898;2022-10-31T08:52:15;100764.61;;;13.84;100.00
32873;BME280;19224;52.462;16.898;2022-10-31T08:54:45;100768.16;;;13.67;100.00
32873;BME280;19224;52.462;16.898;2022-10-31T08:57:16;100768.56;;;13.77;100.00
32873;BME280;19224;52.462;16.898;2022-10-31T08:59:49;100773.59;;;13.84;100.00
32873;BME280;19224;52.462;16.898;2022-10-31T09:02:19;100778.16;;;14.01;100.00
32873;BME280;19224;52.462;16.898;2022-10-31T09:04:57;100768.54;;;14.12;100.00
32873;BME280;19224;52.462;16.898;2022-10-31T09:07:29;100771.27;;;14.21;100.00
32873;BME280;19224;52.462;16.898;2022-10-31T09:10:03;100771.04;;;14.25;100.00
32873;BME280;19224;52.462;16.898;2022-10-31T09:12:36;100776.95;;;14.33;100.00
32873;BME280;19224;52.462;16.898;2022-10-31T09:15:09;100778.11;;;14.44;100.00
32873;BME280;19224;52.462;16.898;2022-10-31T09:17:48;100775.74;;;14.39;100.00
32873;BME280;19224;52.462;16.898;2022-10-31T09:20:27;100785.61;;;14.48;100.00
32873;BME280;19224;52.462;16.898;2022-10-31T09:23:23;100782.80;;;14.49;100.00
32873;BME280;19224;52.462;16.898;2022-10-31T09:25:54;100780.05;;;14.34;100.00
32873;BME280;19224;52.462;16.898;2022-10-31T09:28:30;100783.14;;;14.43;100.00
32873;BME280;19224;52.462;16.898;2022-10-31T09:31:07;100783.53;;;14.61;100.00
32873;BME280;19224;52.462;16.898;2022-10-31T09:33:38;100783.75;;;14.65;100.00
32873;BME280;19224;52.462;16.898;2022-10-31T09:36:14;100786.09;;;14.56;100.00
32873;BME280;19224;52.462;16.898;2022-10-31T09:38:46;100784.65;;;14.49;100.00
32873;BME280;19224;52.462;16.898;2022-10-31T09:41:44;100786.74;;;14.44;100.00
32873;BME280;19224;52.462;16.898;2022-10-31T09:46:51;100796.05;;;14.88;100.00
32873;BME280;19224;52.462;16.898;2022-10-31T09:49:49;100788.88;;;14.87;100.00
32873;BME280;19224;52.462;16.898;2022-10-31T09:52:28;100795.63;;;15.04;100.00
32873;BME280;19224;52.462;16.898;2022-10-31T09:55:26;100793.66;;;15.31;100.00
32873;BME280;19224;52.462;16.898;2022-10-31T09:57:52;100800.19;;;15.36;100.00
32873;BME280;19224;52.462;16.898;2022-10-31T10:00:24;100800.98;;;15.29;100.00
32873;BME280;19224;52.462;16.898;2022-10-31T10:03:13;100797.35;;;15.46;100.00
32873;BME280;19224;52.462;16.898;2022-10-31T10:05:52;100800.06;;;15.46;100.00
32873;BME280;19224;52.462;16.898;2022-10-31T10:08:26;100806.41;;;15.53;100.00
32873;BME280;19224;52.462;16.898;2022-10-31T10:11:34;100809.86;;;15.64;100.00
32873;BME280;19224;52.462;16.898;2022-10-31T10:14:35;100800.59;;;15.68;100.00
32873;BME280;19224;52.462;16.898;2022-10-31T10:17:32;100809.08;;;15.62;100.00
32873;BME280;19224;52.462;16.898;2022-10-31T10:28:48;100807.89;;;15.43;100.00
32873;BME280;19224;52.462;16.898;2022-10-31T10:31:35;100801.05;;;15.36;100.00
32873;BME280;19224;52.462;16.898;2022-10-31T10:34:28;100796.50;;;15.37;100.00
32873;BME280;19224;52.462;16.898;2022-10-31T10:37:17;100788.39;;;15.44;100.00
32873;BME280;19224;52.462;16.898;2022-10-31T10:39:50;100788.52;;;15.49;100.00
32873;BME280;19224;52.462;16.898;2022-10-31T10:42:21;100781.92;;;15.62;100.00
32873;BME280;19224;52.462;16.898;2022-10-31T10:45:17;100785.27;;;15.67;100.00
32873;BME280;19224;52.462;16.898;2022-10-31T10:48:15;100776.48;;;15.77;100.00
32873;BME280;19224;52.462;16.898;2022-10-31T10:50:49;100781.77;;;15.87;100.00
32873;BME280;19224;52.462;16.898;2022-10-31T10:54:02;100781.31;;;15.95;100.00
32873;BME280;19224;52.462;16.898;2022-10-31T10:59:21;100774.38;;;16.05;100.00
32873;BME280;19224;52.462;16.898;2022-10-31T11:01:52;100776.55;;;16.21;100.00
32873;BME280;19224;52.462;16.898;2022-10-31T11:04:32;100765.75;;;16.35;100.00
32873;BME280;19224;52.462;16.898;2022-10-31T11:07:11;100773.08;;;16.48;100.00
32873;BME280;19224;52.462;16.898;2022-10-31T11:09:44;100774.56;;;16.61;100.00
32873;BME280;19224;52.462;16.898;2022-10-31T11:12:32;100772.42;;;16.66;100.00
32873;BME280;19224;52.462;16.898;2022-10-31T11:15:17;100773.70;;;16.81;100.00
32873;BME280;19224;52.462;16.898;2022-10-31T11:17:41;100766.13;;;16.93;100.00
32873;BME280;19224;52.462;16.898;2022-10-31T11:22:55;100770.42;;;17.11;100.00
32873;BME280;19224;52.462;16.898;2022-10-31T11:25:26;100770.52;;;17.16;100.00
32873;BME280;19224;52.462;16.898;2022-10-31T11:28:11;100770.02;;;17.31;100.00
32873;BME280;19224;52.462;16.898;2022-10-31T11:31:00;100768.57;;;17.39;100.00
32873;BME280;19224;52.462;16.898;2022-10-31T11:33:34;100775.17;;;17.42;100.00
32873;BME280;19224;52.462;16.898;2022-10-31T11:38:52;100774.83;;;17.68;100.00
32873;BME280;19224;52.462;16.898;2022-10-31T11:41:35;100772.48;;;17.69;100.00
32873;BME280;19224;52.462;16.898;2022-10-31T11:44:18;100765.92;;;17.85;100.00
32873;BME280;19224;52.462;16.898;2022-10-31T11:46:55;100772.50;;;17.95;100.00
32873;BME280;19224;52.462;16.898;2022-10-31T11:49:41;100768.73;;;18.10;100.00
32873;BME280;19224;52.462;16.898;2022-10-31T11:52:39;100769.09;;;18.18;100.00
32873;BME280;19224;52.462;16.898;2022-10-31T11:55:32;100767.68;;;18.32;100.00
32873;BME280;19224;52.462;16.898;2022-10-31T11:58:19;100769.23;;;18.36;100.00
32873;BME280;19224;52.462;16.898;2022-10-31T12:00:47;100774.28;;;18.55;100.00
32873;BME280;19224;52.462;16.898;2022-10-31T12:06:35;100764.03;;;18.58;100.00
32873;BME280;19224;52.462;16.898;2022-10-31T12:08:56;100758.41;;;18.67;100.00
32873;BME280;19224;52.462;16.898;2022-10-31T12:11:42;100762.95;;;18.73;100.00
32873;BME280;19224;52.462;16.898;2022-10-31T12:14:33;100757.64;;;18.77;100.00
32873;BME280;19224;52.462;16.898;2022-10-31T12:17:15;100756.74;;;18.84;100.00
32873;BME280;19224;52.462;16.898;2022-10-31T12:26:37;100756.67;;;18.91;100.00
32873;BME280;19224;52.462;16.898;2022-10-31T12:32:26;100757.18;;;18.90;100.00
32873;BME280;19224;52.462;16.898;2022-10-31T12:41:14;100751.36;;;19.07;100.00
32873;BME280;19224;52.462;16.898;2022-10-31T12:55:56;100744.38;;;19.28;100.00
32873;BME280;19224;52.462;16.898;2022-10-31T12:58:45;100747.33;;;19.43;100.00
32873;BME280;19224;52.462;16.898;2022-10-31T13:01:33;100739.45;;;19.51;100.00
32873;BME280;19224;52.462;16.898;2022-10-31T13:04:24;100739.01;;;19.57;100.00
32873;BME280;19224;52.462;16.898;2022-10-31T13:07:00;100740.07;;;19.67;100.00
32873;BME280;19224;52.462;16.898;2022-10-31T13:09:38;100731.77;;;19.74;100.00
32873;BME280;19224;52.462;16.898;2022-10-31T13:12:12;100737.06;;;19.64;100.00
32873;BME280;19224;52.462;16.898;2022-10-31T13:14:52;100733.38;;;19.71;100.00
32873;BME280;19224;52.462;16.898;2022-10-31T13:17:47;100725.48;;;19.61;100.00
32873;BME280;19224;52.462;16.898;2022-10-31T13:20:28;100727.29;;;19.50;100.00
32873;BME280;19224;52.462;16.898;2022-10-31T13:23:31;100727.88;;;19.65;100.00
32873;BME280;19224;52.462;16.898;2022-10-31T13:26:01;100728.90;;;19.70;100.00
32873;BME280;19224;52.462;16.898;2022-10-31T13:28:54;100721.75;;;19.80;100.00
32873;BME280;19224;52.462;16.898;2022-10-31T13:31:29;100722.13;;;19.81;100.00
32873;BME280;19224;52.462;16.898;2022-10-31T13:34:18;100719.95;;;19.97;100.00
32873;BME280;19224;52.462;16.898;2022-10-31T13:37:07;100721.65;;;20.05;100.00
32873;BME280;19224;52.462;16.898;2022-10-31T13:42:57;100715.94;;;20.08;100.00
32873;BME280;19224;52.462;16.898;2022-10-31T13:45:29;100710.13;;;20.18;100.00
32873;BME280;19224;52.462;16.898;2022-10-31T13:48:32;100707.15;;;20.21;100.00
32873;BME280;19224;52.462;16.898;2022-10-31T13:51:03;100707.09;;;20.04;100.00
32873;BME280;19224;52.462;16.898;2022-10-31T13:53:55;100713.28;;;20.01;100.00
32873;BME280;19224;52.462;16.898;2022-10-31T13:56:23;100716.47;;;19.95;100.00
32873;BME280;19224;52.462;16.898;2022-10-31T14:01:53;100715.32;;;19.86;100.00
32873;BME280;19224;52.462;16.898;2022-10-31T14:04:35;100714.83;;;19.92;100.00
32873;BME280;19224;52.462;16.898;2022-10-31T14:07:14;100713.82;;;20.06;100.00
32873;BME280;19224;52.462;16.898;2022-10-31T14:10:04;100716.25;;;20.21;100.00
32873;BME280;19224;52.462;16.898;2022-10-31T14:12:46;100712.56;;;20.39;100.00
32873;BME280;19224;52.462;16.898;2022-10-31T14:15:21;100712.83;;;20.41;100.00
32873;BME280;19224;52.462;16.898;2022-10-31T14:18:02;100709.48;;;20.49;100.00
32873;BME280;19224;52.462;16.898;2022-10-31T14:20:43;100701.65;;;20.50;100.00
32873;BME280;19224;52.462;16.898;2022-10-31T14:23:34;100701.54;;;20.51;100.00